Time;durP1;ratioP1;P1;durP2;ratioP2;P2;SDS_P1;SDS_P2;PMS_P1;PMS_P2;Temp;Humidity;BMP_temperature;BMP_pressure;BME280_temperature;BME280_humidity;BME280_pressure;Samples;Min_cycle;Max_cycle;Signal;HPM_P1;HPM_P2
2021/03/24 00:00:11;;;;;;;45.58;33.88;;;4.90;99.90;;;;;;4946248;28;20197;-87
2021/03/24 00:02:38;;;;;;;50.70;32.13;;;4.90;99.90;;;;;;4950309;28;20253;-88
2021/03/24 00:05:10;;;;;;;48.80;34.75;;;4.90;99.90;;;;;;4966914;28;20207;-88
2021/03/24 00:07:36;;;;;;;50.75;35.42;;;4.90;99.90;;;;;;4955109;28;20200;-88
2021/03/24 00:10:03;;;;;;;48.25;33.97;;;4.90;99.90;;;;;;4944417;28;20233;-88
2021/03/24 00:12:30;;;;;;;46.90;33.00;;;4.90;99.90;;;;;;4944730;28;20191;-88
2021/03/24 00:14:56;;;;;;;56.67;38.00;;;4.90;99.90;;;;;;4956203;28;20200;-89
2021/03/24 00:17:23;;;;;;;48.97;34.13;;;4.90;99.90;;;;;;4942008;28;20246;-89
2021/03/24 00:19:50;;;;;;;50.72;31.85;;;4.90;99.90;;;;;;4955904;28;20258;-89
2021/03/24 00:22:16;;;;;;;45.75;33.10;;;5.00;99.90;;;;;;4947538;28;20203;-89
2021/03/24 00:24:42;;;;;;;47.88;33.55;;;4.90;99.90;;;;;;4953274;28;20192;-89
2021/03/24 00:27:09;;;;;;;44.25;33.88;;;4.80;99.90;;;;;;4949759;29;20797;-89
2021/03/24 00:29:35;;;;;;;45.15;35.15;;;4.80;99.90;;;;;;4942306;28;20215;-89
2021/03/24 00:32:02;;;;;;;52.80;39.50;;;4.70;99.90;;;;;;4962592;28;20194;-89
2021/03/24 00:34:28;;;;;;;48.80;33.10;;;4.80;99.90;;;;;;4946289;28;20230;-89
2021/03/24 00:36:56;;;;;;;45.83;32.20;;;4.60;99.90;;;;;;4953872;28;20196;-89
2021/03/24 00:39:22;;;;;;;47.90;34.55;;;4.60;99.90;;;;;;4950629;28;20195;-89
2021/03/24 00:41:48;;;;;;;52.25;32.97;;;4.60;99.90;;;;;;4954686;28;20202;-89
2021/03/24 00:44:15;;;;;;;44.55;34.40;;;4.60;99.90;;;;;;4951113;28;20203;-89
2021/03/24 00:46:41;;;;;;;46.40;32.40;;;4.50;99.90;;;;;;4951910;28;20198;-88
2021/03/24 00:49:08;;;;;;;48.60;36.50;;;4.60;99.90;;;;;;4952918;28;20202;-88
2021/03/24 00:51:34;;;;;;;46.65;34.08;;;4.50;99.90;;;;;;4951638;28;20188;-89
2021/03/24 00:54:01;;;;;;;49.90;32.55;;;4.50;99.90;;;;;;4952589;29;20287;-88
2021/03/24 00:56:28;;;;;;;42.97;32.03;;;4.60;99.90;;;;;;4949088;28;20194;-89
2021/03/24 00:58:54;;;;;;;46.97;35.17;;;4.70;99.90;;;;;;4953687;28;20191;-88
2021/03/24 01:01:21;;;;;;;46.33;31.27;;;4.70;99.90;;;;;;4954134;28;20187;-88
2021/03/24 01:03:47;;;;;;;41.92;31.00;;;4.70;99.90;;;;;;4955700;28;20274;-89
2021/03/24 01:06:14;;;;;;;38.33;29.10;;;4.70;99.90;;;;;;4949595;28;20198;-89
2021/03/24 01:08:40;;;;;;;42.78;31.05;;;4.80;99.90;;;;;;4955085;28;20191;-88
2021/03/24 01:11:08;;;;;;;46.92;30.55;;;4.80;99.90;;;;;;4947590;28;20216;-88
2021/03/24 01:13:34;;;;;;;41.33;30.70;;;4.80;99.90;;;;;;4944205;29;20195;-88
2021/03/24 01:16:00;;;;;;;44.90;33.53;;;4.70;99.90;;;;;;4954983;28;20190;-88
2021/03/24 01:18:26;;;;;;;43.83;31.30;;;4.80;99.90;;;;;;4950516;28;20200;-88
2021/03/24 01:20:54;;;;;;;45.50;28.85;;;4.70;99.90;;;;;;4941988;28;20195;-88
2021/03/24 01:23:20;;;;;;;44.25;33.08;;;4.70;99.90;;;;;;4954893;28;20199;-89
2021/03/24 01:25:46;;;;;;;40.75;31.00;;;4.70;99.90;;;;;;4941608;28;20211;-88
2021/03/24 01:28:18;;;;;;;41.90;28.95;;;4.70;99.90;;;;;;4955416;28;20192;-88
2021/03/24 01:30:44;;;;;;;50.38;28.42;;;4.70;99.90;;;;;;4946372;28;20248;-89
2021/03/24 01:33:11;;;;;;;43.78;31.27;;;4.70;99.90;;;;;;4937251;29;20203;-88
2021/03/24 01:35:39;;;;;;;42.22;27.98;;;4.60;99.90;;;;;;4943094;28;20302;-88
2021/03/24 01:38:05;;;;;;;48.38;30.30;;;4.60;99.90;;;;;;4958377;28;20199;-88
2021/03/24 01:40:33;;;;;;;39.65;28.48;;;4.50;99.90;;;;;;4954527;28;20202;-88
2021/03/24 01:43:03;;;;;;;44.90;32.00;;;4.40;99.90;;;;;;4954704;28;20654;-88
2021/03/24 01:46:06;;;;;;;40.00;28.10;;;4.40;99.90;;;;;;4959690;28;20191;-88
2021/03/24 01:48:34;;;;;;;39.03;27.98;;;4.40;99.90;;;;;;4949385;28;20254;-89
2021/03/24 01:51:01;;;;;;;35.95;28.35;;;4.50;99.90;;;;;;4954024;28;20237;-88
2021/03/24 01:53:29;;;;;;;40.22;28.55;;;4.40;99.90;;;;;;4958901;28;20194;-89
2021/03/24 01:55:56;;;;;;;42.08;26.83;;;4.40;99.90;;;;;;4951741;28;20265;-88
2021/03/24 01:58:22;;;;;;;34.72;28.20;;;4.40;99.90;;;;;;4952914;28;20192;-88
2021/03/24 02:00:51;;;;;;;42.28;28.23;;;4.40;99.90;;;;;;4954164;29;20456;-89
2021/03/24 02:03:19;;;;;;;39.92;27.75;;;4.40;99.90;;;;;;4938314;28;20201;-88
2021/03/24 02:05:47;;;;;;;36.22;24.02;;;4.40;99.90;;;;;;4946453;28;20199;-89
2021/03/24 02:08:18;;;;;;;36.40;25.38;;;4.40;99.90;;;;;;4942201;28;20192;-89
2021/03/24 02:10:48;;;;;;;41.83;28.15;;;4.40;99.90;;;;;;4936665;29;20220;-89
2021/03/24 02:13:20;;;;;;;40.63;29.55;;;4.40;99.90;;;;;;4965208;28;20206;-89
2021/03/24 02:15:49;;;;;;;33.58;24.88;;;4.40;99.90;;;;;;4967594;28;20225;-88
2021/03/24 02:18:18;;;;;;;41.15;26.88;;;4.30;99.90;;;;;;4976812;28;20215;-88
2021/03/24 02:20:51;;;;;;;42.17;27.92;;;4.30;99.90;;;;;;4942916;28;20227;-89
2021/03/24 02:23:27;;;;;;;35.00;26.15;;;4.50;99.90;;;;;;4942803;29;20188;-88
2021/03/24 02:25:58;;;;;;;42.83;26.55;;;4.40;99.90;;;;;;4950890;28;20202;-89
2021/03/24 02:28:26;;;;;;;41.10;25.60;;;4.40;99.90;;;;;;4942836;29;20191;-88
2021/03/24 02:30:53;;;;;;;38.85;25.58;;;4.40;99.90;;;;;;4954840;28;20230;-88
2021/03/24 02:33:23;;;;;;;43.40;27.33;;;4.30;99.90;;;;;;4951543;28;20196;-89
2021/03/24 02:35:52;;;;;;;36.17;27.15;;;4.30;99.90;;;;;;4941692;28;20227;-89
2021/03/24 02:38:21;;;;;;;38.22;29.00;;;4.30;99.90;;;;;;4947463;29;20214;-88
2021/03/24 02:40:48;;;;;;;42.47;27.23;;;4.20;99.90;;;;;;4965605;28;20194;-89
2021/03/24 02:43:15;;;;;;;40.63;28.10;;;4.10;99.90;;;;;;4946704;28;20194;-88
2021/03/24 02:45:45;;;;;;;40.65;27.65;;;4.10;99.90;;;;;;4958996;28;20192;-89
2021/03/24 02:48:16;;;;;;;40.97;25.65;;;4.20;99.90;;;;;;4949594;29;20297;-89
2021/03/24 02:50:45;;;;;;;37.13;26.80;;;4.20;99.90;;;;;;4948776;29;20223;-88
2021/03/24 02:53:12;;;;;;;39.38;27.73;;;4.20;99.90;;;;;;4955858;28;20191;-88
2021/03/24 02:55:42;;;;;;;39.03;28.13;;;4.20;99.90;;;;;;4939937;28;20198;-89
2021/03/24 02:58:09;;;;;;;35.45;27.02;;;4.20;99.90;;;;;;4941202;29;20222;-88
2021/03/24 03:00:35;;;;;;;43.47;29.52;;;4.10;99.90;;;;;;4957336;28;20202;-88
2021/03/24 03:03:06;;;;;;;42.35;28.00;;;4.10;99.90;;;;;;4957727;28;20191;-88
2021/03/24 03:05:35;;;;;;;36.50;27.75;;;4.10;99.90;;;;;;4954958;28;20267;-89
2021/03/24 03:08:07;;;;;;;55.47;29.27;;;4.10;99.90;;;;;;4963328;28;20253;-89
2021/03/24 03:10:40;;;;;;;38.22;27.60;;;4.00;99.90;;;;;;4963542;28;20301;-88
2021/03/24 03:13:12;;;;;;;44.80;28.25;;;4.10;99.90;;;;;;4962371;28;20230;-88
2021/03/24 03:15:42;;;;;;;42.95;26.30;;;4.00;99.90;;;;;;4956284;28;20299;-89
2021/03/24 03:18:14;;;;;;;40.63;30.20;;;4.00;99.90;;;;;;4957418;28;20203;-89
2021/03/24 03:20:45;;;;;;;41.58;28.85;;;4.00;99.90;;;;;;4944871;28;20203;-88
2021/03/24 03:23:15;;;;;;;39.53;26.88;;;3.90;99.90;;;;;;4956591;28;20200;-89
2021/03/24 03:25:48;;;;;;;48.53;27.15;;;3.90;99.90;;;;;;4955817;28;20197;-88
2021/03/24 03:28:18;;;;;;;40.20;28.05;;;3.90;99.90;;;;;;4977387;28;20667;-89
2021/03/24 03:30:48;;;;;;;39.13;26.63;;;3.90;99.90;;;;;;4956630;28;20574;-88
2021/03/24 03:33:19;;;;;;;40.22;25.23;;;3.80;99.90;;;;;;4943916;28;20656;-88
2021/03/24 03:35:45;;;;;;;39.47;28.25;;;3.90;99.90;;;;;;4961298;28;20280;-88
2021/03/24 03:38:19;;;;;;;34.28;26.60;;;3.90;99.90;;;;;;4954722;28;20552;-88
2021/03/24 03:40:47;;;;;;;35.13;25.98;;;4.00;99.90;;;;;;4956434;28;20202;-88
2021/03/24 03:43:17;;;;;;;39.35;28.30;;;3.90;99.90;;;;;;4952640;28;20632;-88
2021/03/24 03:45:46;;;;;;;36.45;27.60;;;3.90;99.90;;;;;;4964600;28;20202;-88
2021/03/24 03:48:14;;;;;;;35.45;26.63;;;3.90;99.90;;;;;;4958605;28;20199;-88
2021/03/24 03:50:43;;;;;;;38.95;24.15;;;3.90;99.90;;;;;;4954400;28;20230;-89
2021/03/24 03:53:16;;;;;;;39.17;27.88;;;3.90;99.90;;;;;;4944355;28;20199;-89
2021/03/24 03:55:48;;;;;;;36.45;27.10;;;3.80;99.90;;;;;;4948965;28;20190;-88
2021/03/24 03:58:27;;;;;;;38.58;25.58;;;3.80;99.90;;;;;;4973444;28;20218;-89
2021/03/24 04:00:57;;;;;;;37.83;25.73;;;3.80;99.90;;;;;;4938940;29;20198;-89
2021/03/24 04:03:31;;;;;;;38.30;26.75;;;3.90;99.90;;;;;;4952606;28;20599;-89
2021/03/24 04:06:04;;;;;;;44.20;27.83;;;3.90;99.90;;;;;;4949812;28;20582;-89
2021/03/24 04:08:34;;;;;;;36.58;26.35;;;3.90;99.90;;;;;;4972319;28;20184;-88
2021/03/24 04:11:05;;;;;;;35.38;26.58;;;3.90;99.90;;;;;;4950010;29;20221;-88
2021/03/24 04:13:34;;;;;;;35.33;24.77;;;3.90;99.90;;;;;;4954674;28;20695;-88
2021/03/24 04:16:02;;;;;;;37.60;27.10;;;3.90;99.90;;;;;;4968956;28;20570;-88
2021/03/24 04:18:34;;;;;;;36.67;25.42;;;3.80;99.90;;;;;;4943163;28;20203;-88
2021/03/24 04:21:03;;;;;;;41.95;29.02;;;3.80;99.90;;;;;;4974729;28;20209;-89
2021/03/24 04:23:34;;;;;;;33.60;24.70;;;3.90;99.90;;;;;;4956334;28;20198;-88
2021/03/24 04:26:06;;;;;;;38.00;25.75;;;3.90;99.90;;;;;;4954545;28;20198;-87
2021/03/24 04:28:46;;;;;;;37.10;25.48;;;3.90;99.90;;;;;;4949546;28;20191;-89
2021/03/24 04:31:16;;;;;;;39.80;27.77;;;3.90;99.90;;;;;;4937179;29;20231;-88
2021/03/24 04:33:42;;;;;;;38.60;26.65;;;3.90;99.90;;;;;;4942531;28;20195;-90
2021/03/24 04:36:15;;;;;;;39.20;26.05;;;3.90;99.90;;;;;;4961596;28;20306;-89
2021/03/24 04:38:47;;;;;;;34.45;25.02;;;3.90;99.90;;;;;;4954940;28;20202;-90
2021/03/24 04:41:20;;;;;;;35.97;25.95;;;3.90;99.90;;;;;;4940320;29;20221;-90
2021/03/24 04:43:51;;;;;;;39.58;26.77;;;3.90;99.90;;;;;;4957181;28;20187;-90
2021/03/24 04:46:21;;;;;;;40.10;24.98;;;3.80;99.90;;;;;;4968970;28;20205;-90
2021/03/24 04:48:50;;;;;;;40.00;24.90;;;3.80;99.90;;;;;;4960974;28;20256;-90
2021/03/24 04:51:21;;;;;;;36.97;26.95;;;3.80;99.90;;;;;;4948342;28;20214;-90
2021/03/24 04:53:53;;;;;;;37.35;25.63;;;3.70;99.90;;;;;;4955856;28;20209;-89
2021/03/24 04:56:21;;;;;;;40.78;27.35;;;3.70;99.90;;;;;;4958099;28;20202;-90
2021/03/24 04:58:52;;;;;;;39.67;27.40;;;3.60;99.90;;;;;;4940510;28;20655;-90
2021/03/24 05:01:25;;;;;;;44.55;29.27;;;3.60;99.90;;;;;;4939307;28;20218;-89
2021/03/24 05:03:55;;;;;;;36.53;25.70;;;3.60;99.90;;;;;;4971236;28;20195;-89
2021/03/24 05:06:29;;;;;;;42.33;28.08;;;3.60;99.90;;;;;;4974515;28;20185;-91
2021/03/24 05:08:56;;;;;;;41.13;26.30;;;3.50;99.90;;;;;;4953095;28;20202;-90
2021/03/24 05:11:26;;;;;;;41.40;25.73;;;3.50;99.90;;;;;;4949642;29;20232;-90
2021/03/24 05:14:01;;;;;;;37.72;27.85;;;3.40;99.90;;;;;;4957535;28;20195;-90
2021/03/24 05:16:38;;;;;;;40.45;27.77;;;3.50;99.90;;;;;;4949639;28;20200;-90
2021/03/24 05:19:05;;;;;;;47.28;30.38;;;3.50;99.90;;;;;;4959285;28;20605;-90
2021/03/24 05:21:53;;;;;;;43.78;28.92;;;3.50;99.90;;;;;;4973638;28;20224;-90
2021/03/24 05:24:26;;;;;;;42.00;28.13;;;3.40;99.90;;;;;;4938378;29;20202;-89
2021/03/24 05:26:58;;;;;;;37.78;25.77;;;3.40;99.90;;;;;;4952147;29;20188;-89
2021/03/24 05:29:29;;;;;;;35.25;26.15;;;3.40;99.90;;;;;;4953201;28;20198;-89
2021/03/24 05:31:57;;;;;;;41.45;28.95;;;3.40;99.90;;;;;;4971361;28;20254;-90
2021/03/24 05:34:27;;;;;;;37.90;26.63;;;3.40;99.90;;;;;;4960468;28;20229;-87
2021/03/24 05:36:55;;;;;;;41.95;26.65;;;3.40;99.90;;;;;;4944003;28;20199;-88
2021/03/24 05:39:24;;;;;;;37.70;28.02;;;3.40;99.90;;;;;;4959618;28;20198;-90
2021/03/24 05:42:01;;;;;;;39.80;27.25;;;3.40;99.90;;;;;;4971628;28;20234;-90
2021/03/24 05:44:55;;;;;;;38.83;26.73;;;3.50;99.90;;;;;;4961473;28;20198;-90
2021/03/24 05:47:39;;;;;;;36.95;26.25;;;3.50;99.90;;;;;;4940374;28;20195;-87
2021/03/24 05:50:34;;;;;;;38.65;28.98;;;3.50;99.90;;;;;;4957886;28;20245;-90
2021/03/24 05:53:23;;;;;;;41.50;26.27;;;3.50;99.90;;;;;;4954593;28;20198;-90
2021/03/24 05:55:58;;;;;;;45.38;28.05;;;3.40;99.90;;;;;;4950306;28;20208;-89
2021/03/24 05:58:38;;;;;;;41.38;30.10;;;3.40;99.90;;;;;;4952303;28;20193;-90
2021/03/24 06:01:09;;;;;;;36.08;25.27;;;3.50;99.90;;;;;;4954675;28;20228;-90
2021/03/24 06:03:53;;;;;;;36.03;25.38;;;3.60;99.90;;;;;;4959001;28;20206;-89
2021/03/24 06:06:55;;;;;;;40.58;26.83;;;3.60;99.90;;;;;;4962337;28;20651;-90
2021/03/24 06:09:38;;;;;;;45.88;29.75;;;3.70;99.90;;;;;;4963565;28;20204;-90
2021/03/24 06:12:17;;;;;;;36.60;26.27;;;3.80;99.90;;;;;;4961456;28;20199;-90
2021/03/24 06:15:19;;;;;;;42.80;26.35;;;3.70;99.90;;;;;;4943510;29;20242;-89
2021/03/24 06:18:14;;;;;;;35.45;27.27;;;3.80;99.90;;;;;;4969328;28;20225;-89
2021/03/24 06:20:45;;;;;;;41.60;26.25;;;3.90;99.90;;;;;;4959357;28;20260;-90
2021/03/24 06:23:43;;;;;;;41.78;24.55;;;3.90;99.90;;;;;;4962842;28;20251;-91
2021/03/24 06:26:38;;;;;;;40.28;27.50;;;4.00;99.90;;;;;;4970270;29;20195;-89
2021/03/24 06:29:14;;;;;;;36.72;26.30;;;4.20;99.90;;;;;;4969015;28;20206;-89
2021/03/24 06:32:12;;;;;;;38.55;25.17;;;4.20;99.90;;;;;;4967570;28;20249;-89
2021/03/24 06:35:11;;;;;;;31.20;23.38;;;4.40;99.90;;;;;;4969643;28;20326;-88
2021/03/24 06:37:52;;;;;;;34.50;23.38;;;4.50;99.90;;;;;;4972585;28;20190;-89
2021/03/24 06:40:34;;;;;;;37.97;24.25;;;4.50;99.90;;;;;;4951216;29;20231;-88
2021/03/24 06:43:15;;;;;;;40.70;25.20;;;4.60;99.90;;;;;;4956520;28;20196;-89
2021/03/24 06:45:52;;;;;;;36.30;25.13;;;4.70;99.90;;;;;;4951610;28;20187;-89
2021/03/24 06:48:48;;;;;;;36.15;24.75;;;4.80;99.90;;;;;;4951053;29;20207;-88
2021/03/24 06:51:47;;;;;;;33.33;22.75;;;4.90;99.90;;;;;;4956995;28;20230;-88
2021/03/24 06:54:32;;;;;;;42.17;26.92;;;5.00;99.90;;;;;;4953185;29;20192;-88
2021/03/24 06:57:41;;;;;;;38.55;23.58;;;5.10;99.90;;;;;;4955485;28;20204;-89
2021/03/24 07:00:23;;;;;;;45.53;25.60;;;5.20;99.90;;;;;;4953993;29;20203;-89
2021/03/24 07:03:22;;;;;;;32.22;22.13;;;5.40;99.90;;;;;;4950845;28;20195;-88
2021/03/24 07:06:02;;;;;;;42.42;23.35;;;5.40;99.90;;;;;;4950670;29;20206;-88
2021/03/24 07:08:43;;;;;;;33.08;20.75;;;5.50;99.90;;;;;;4948658;28;20188;-89
2021/03/24 07:11:46;;;;;;;33.13;24.15;;;5.60;99.90;;;;;;4948929;28;20219;-90
2021/03/24 07:14:40;;;;;;;33.20;19.33;;;5.70;99.90;;;;;;4939863;29;20195;-88
2021/03/24 07:17:34;;;;;;;29.70;21.67;;;5.80;99.90;;;;;;4948431;28;20203;-89
2021/03/24 07:20:40;;;;;;;34.15;20.20;;;5.90;99.90;;;;;;4955250;28;20180;-90
2021/03/24 07:23:44;;;;;;;36.80;21.25;;;6.00;99.90;;;;;;4938215;29;20662;-94
2021/03/24 07:26:17;;;;;;;27.60;20.13;;;6.20;99.90;;;;;;4923860;29;20225;-91
2021/03/24 07:29:01;;;;;;;31.25;20.75;;;6.20;99.90;;;;;;4955703;28;20218;-91
2021/03/24 07:31:53;;;;;;;34.20;21.50;;;6.30;99.90;;;;;;4956848;28;20253;-91
2021/03/24 07:34:34;;;;;;;30.10;19.90;;;6.40;99.90;;;;;;4960029;28;20685;-91
2021/03/24 07:37:26;;;;;;;23.20;18.70;;;6.50;99.90;;;;;;4942950;28;20188;-91
2021/03/24 07:40:20;;;;;;;34.15;22.42;;;6.60;99.90;;;;;;4978725;28;20199;-91
2021/03/24 07:43:13;;;;;;;29.67;19.92;;;6.70;99.90;;;;;;4958995;28;20199;-93
2021/03/24 07:45:57;;;;;;;29.95;21.67;;;6.90;99.90;;;;;;4951782;29;20200;-91
2021/03/24 07:48:59;;;;;;;27.25;20.45;;;6.90;99.90;;;;;;4957476;28;20201;-92
2021/03/24 07:52:02;;;;;;;28.30;18.80;;;7.10;99.90;;;;;;4975650;28;20226;-92
2021/03/24 07:54:35;;;;;;;33.45;18.48;;;7.20;99.90;;;;;;4940250;29;20629;-91
2021/03/24 07:57:07;;;;;;;32.38;20.88;;;7.30;99.90;;;;;;4957533;28;20192;-92
2021/03/24 07:59:40;;;;;;;37.05;21.15;;;7.30;99.90;;;;;;4948808;29;20194;-92
2021/03/24 08:02:30;;;;;;;28.98;19.42;;;7.40;99.90;;;;;;4969073;28;20285;-92
2021/03/24 08:05:20;;;;;;;34.33;20.27;;;7.60;99.90;;;;;;4978468;28;20209;-91
2021/03/24 08:07:54;;;;;;;30.58;20.67;;;7.70;99.90;;;;;;4960167;28;20632;-92
2021/03/24 08:10:30;;;;;;;33.55;21.70;;;7.90;99.90;;;;;;4961785;28;20327;-91
2021/03/24 08:13:19;;;;;;;35.35;21.77;;;8.00;99.90;;;;;;4973348;28;20218;-90
2021/03/24 08:16:16;;;;;;;31.25;22.00;;;8.10;99.90;;;;;;4947587;28;20193;-90
2021/03/24 08:18:56;;;;;;;27.45;20.17;;;8.20;99.90;;;;;;4958629;28;20199;-90
2021/03/24 08:21:30;;;;;;;28.35;20.98;;;8.30;99.90;;;;;;4957733;28;20246;-90
2021/03/24 08:24:16;;;;;;;27.05;20.27;;;8.50;99.90;;;;;;4957575;28;20206;-90
2021/03/24 08:26:47;;;;;;;29.25;21.00;;;8.70;99.90;;;;;;4964677;28;20274;-91
2021/03/24 08:29:22;;;;;;;36.80;23.73;;;8.80;99.90;;;;;;4958729;28;20194;-90
2021/03/24 08:32:31;;;;;;;36.08;24.30;;;8.80;99.90;;;;;;4942472;28;20219;-90
2021/03/24 08:35:25;;;;;;;30.88;21.70;;;9.00;99.90;;;;;;4954816;28;20219;-91
2021/03/24 08:38:27;;;;;;;32.60;21.95;;;9.20;99.90;;;;;;4967096;28;20192;-90
2021/03/24 08:41:20;;;;;;;40.30;23.52;;;9.30;99.90;;;;;;4882920;29;20194;-89
2021/03/24 08:43:54;;;;;;;38.70;23.40;;;9.50;99.90;;;;;;4946101;29;20192;-91
2021/03/24 08:46:28;;;;;;;34.63;22.40;;;9.60;99.90;;;;;;4967322;29;20205;-90
2021/03/24 08:48:58;;;;;;;38.42;23.58;;;9.60;99.90;;;;;;4943495;28;20219;-90
2021/03/24 08:51:44;;;;;;;32.63;22.67;;;9.80;99.90;;;;;;4962323;28;20290;-90
2021/03/24 08:54:40;;;;;;;39.13;24.13;;;9.90;99.90;;;;;;4956967;28;20192;-91
2021/03/24 08:57:17;;;;;;;38.17;26.25;;;10.00;99.90;;;;;;4971237;28;20188;-91
2021/03/24 08:59:51;;;;;;;41.33;27.55;;;10.10;99.90;;;;;;4970986;28;20281;-91
2021/03/24 09:02:34;;;;;;;38.80;24.10;;;10.20;99.90;;;;;;4978042;28;20190;-90
2021/03/24 09:05:14;;;;;;;39.03;25.83;;;10.30;99.90;;;;;;4942537;29;20398;-90
2021/03/24 09:08:00;;;;;;;41.30;25.52;;;10.40;99.90;;;;;;4963033;28;20187;-90
2021/03/24 09:10:50;;;;;;;38.80;25.73;;;10.40;99.90;;;;;;4981677;28;20206;-93
2021/03/24 09:13:23;;;;;;;39.00;24.95;;;10.50;99.90;;;;;;4976602;28;20227;-91
2021/03/24 09:16:29;;;;;;;39.75;26.92;;;10.60;99.90;;;;;;4978984;28;20180;-91
2021/03/24 09:19:10;;;;;;;44.45;30.05;;;10.70;99.90;;;;;;4963986;28;20198;-89
2021/03/24 09:21:50;;;;;;;42.85;27.67;;;10.70;99.90;;;;;;4971725;28;20620;-90
2021/03/24 09:24:45;;;;;;;47.25;25.13;;;10.80;99.90;;;;;;4944617;28;20274;-90
2021/03/24 09:27:40;;;;;;;42.85;28.30;;;10.90;99.90;;;;;;4955347;28;20690;-90
2021/03/24 09:31:05;;;;;;;43.60;27.02;;;10.90;99.90;;;;;;4941568;28;20299;-91
2021/03/24 09:33:45;;;;;;;43.40;27.35;;;11.10;99.90;;;;;;4916842;29;20195;-90
2021/03/24 09:36:48;;;;;;;36.85;24.60;;;11.20;99.90;;;;;;4950074;28;20672;-89
2021/03/24 09:39:23;;;;;;;40.40;26.70;;;11.30;99.90;;;;;;4956614;28;20203;-89
2021/03/24 09:41:55;;;;;;;46.60;28.25;;;11.30;99.90;;;;;;4950019;28;20645;-90
2021/03/24 09:44:29;;;;;;;38.60;27.45;;;11.30;99.90;;;;;;4962112;28;20200;-90
2021/03/24 09:46:56;;;;;;;42.50;25.65;;;11.40;99.90;;;;;;4971299;28;20647;-90
2021/03/24 09:49:28;;;;;;;44.80;27.70;;;11.50;99.90;;;;;;4992456;28;20202;-90
2021/03/24 09:52:12;;;;;;;39.80;27.75;;;11.60;99.90;;;;;;4992441;28;20254;-91
2021/03/24 09:54:38;;;;;;;43.30;28.63;;;11.70;99.90;;;;;;4976768;28;20198;-91
2021/03/24 09:57:07;;;;;;;44.42;26.85;;;11.90;99.90;;;;;;4963287;28;20195;-90
2021/03/24 09:59:43;;;;;;;45.53;28.83;;;11.90;99.90;;;;;;4951383;28;20402;-90
2021/03/24 10:02:21;;;;;;;43.78;27.50;;;12.00;99.90;;;;;;4957166;28;20187;-90
2021/03/24 10:04:53;;;;;;;42.25;26.80;;;12.00;99.90;;;;;;4953731;28;20188;-89
2021/03/24 10:07:23;;;;;;;43.75;27.77;;;12.00;99.90;;;;;;4949310;28;20870;-89
2021/03/24 10:09:56;;;;;;;42.45;28.73;;;12.20;99.90;;;;;;4944721;28;20198;-91
2021/03/24 10:12:35;;;;;;;38.92;26.10;;;12.30;99.90;;;;;;4949855;29;20278;-91
2021/03/24 10:15:28;;;;;;;37.55;25.20;;;12.30;99.90;;;;;;4944594;28;20189;-91
2021/03/24 10:18:04;;;;;;;40.45;26.00;;;12.40;99.90;;;;;;4936263;28;20291;-90
2021/03/24 10:20:38;;;;;;;43.58;28.58;;;12.40;99.90;;;;;;4955182;28;20625;-91
2021/03/24 10:23:12;;;;;;;36.92;25.80;;;12.30;99.90;;;;;;4966854;28;20202;-90
2021/03/24 10:25:42;;;;;;;47.85;28.30;;;12.30;99.90;;;;;;4943427;28;20603;-90
2021/03/24 10:28:12;;;;;;;42.10;26.52;;;12.40;99.90;;;;;;4953884;28;20196;-91
2021/03/24 10:30:45;;;;;;;41.17;28.27;;;12.50;99.90;;;;;;4963693;28;20231;-91
2021/03/24 10:33:20;;;;;;;38.47;23.30;;;12.40;99.90;;;;;;4953169;28;20239;-91
2021/03/24 10:35:56;;;;;;;37.60;26.10;;;12.40;99.90;;;;;;4974529;28;20235;-92
2021/03/24 10:38:29;;;;;;;44.58;24.98;;;12.50;99.90;;;;;;4971832;28;20666;-92
2021/03/24 10:41:25;;;;;;;42.70;28.05;;;12.60;99.90;;;;;;4977848;28;20278;-91
2021/03/24 10:44:01;;;;;;;35.47;24.48;;;12.60;99.90;;;;;;4964127;28;20224;-91
2021/03/24 10:46:32;;;;;;;36.83;25.05;;;12.60;99.90;;;;;;4975066;28;20202;-90
2021/03/24 10:49:02;;;;;;;41.13;26.05;;;12.80;99.90;;;;;;4966958;28;20195;-90
2021/03/24 10:51:42;;;;;;;40.92;27.60;;;13.00;99.90;;;;;;4958745;28;20220;-90
2021/03/24 10:54:19;;;;;;;48.67;27.52;;;13.10;99.90;;;;;;4961612;28;20195;-92
2021/03/24 10:57:34;;;;;;;45.92;29.52;;;13.20;99.90;;;;;;4964792;28;20190;-93
2021/03/24 11:00:12;;;;;;;40.90;26.67;;;13.20;99.90;;;;;;4893778;29;20675;-92
2021/03/24 11:02:47;;;;;;;43.97;25.10;;;13.30;99.90;;;;;;4883949;29;20318;-92
2021/03/24 11:05:20;;;;;;;47.45;29.98;;;13.40;99.90;;;;;;4922637;29;20284;-91
2021/03/24 11:07:52;;;;;;;42.03;26.83;;;13.40;99.90;;;;;;4946458;29;20558;-91
2021/03/24 11:10:39;;;;;;;46.45;26.75;;;13.60;99.90;;;;;;4948871;28;20224;-91
2021/03/24 11:13:12;;;;;;;40.17;27.83;;;13.70;99.90;;;;;;4957818;29;20210;-92
2021/03/24 11:16:08;;;;;;;40.50;28.63;;;13.60;99.90;;;;;;4980592;28;20205;-92
2021/03/24 11:18:40;;;;;;;42.10;27.63;;;13.60;99.90;;;;;;4981837;28;20159;-92
2021/03/24 11:21:48;;;;;;;43.08;27.52;;;13.70;99.90;;;;;;4981183;28;20222;-91
2021/03/24 11:24:23;;;;;;;37.95;26.30;;;13.90;99.90;;;;;;4955569;28;20648;-92
2021/03/24 11:27:10;;;;;;;41.90;24.42;;;13.90;99.90;;;;;;4953096;28;20244;-91
2021/03/24 11:29:47;;;;;;;41.40;26.35;;;13.80;99.90;;;;;;4959266;28;20246;-91
2021/03/24 11:32:26;;;;;;;44.90;26.27;;;13.80;99.90;;;;;;4963359;28;20214;-91
2021/03/24 11:34:58;;;;;;;41.42;26.17;;;14.00;99.90;;;;;;4967912;28;20230;-91
2021/03/24 11:37:40;;;;;;;43.40;27.08;;;14.20;99.90;;;;;;4970518;28;20208;-91
2021/03/24 11:40:16;;;;;;;41.08;23.92;;;14.30;99.90;;;;;;4977324;28;20195;-91
2021/03/24 11:42:53;;;;;;;40.83;27.05;;;14.40;99.90;;;;;;4953965;28;20191;-90
2021/03/24 11:45:21;;;;;;;39.72;26.10;;;14.60;99.90;;;;;;4968604;28;20716;-90
2021/03/24 11:48:12;;;;;;;37.83;26.23;;;15.00;99.90;;;;;;4960158;28;20190;-90
2021/03/24 11:50:46;;;;;;;43.05;25.98;;;15.50;99.90;;;;;;4959207;28;20314;-91
2021/03/24 11:53:27;;;;;;;29.15;21.92;;;16.10;99.90;;;;;;4969624;28;20199;-91
2021/03/24 11:55:59;;;;;;;37.60;24.58;;;16.80;99.90;;;;;;4977749;28;20194;-90
2021/03/24 11:58:41;;;;;;;33.55;21.98;;;16.70;99.90;;;;;;4973686;28;20255;-90
2021/03/24 12:01:32;;;;;;;31.85;23.15;;;16.80;99.90;;;;;;4967450;28;20438;-91
2021/03/24 12:04:26;;;;;;;36.40;25.17;;;17.10;99.90;;;;;;4952582;29;20192;-91
2021/03/24 12:07:05;;;;;;;35.22;24.80;;;17.10;99.90;;;;;;4935328;28;20535;-91
2021/03/24 12:09:37;;;;;;;29.27;21.95;;;17.30;99.90;;;;;;4938388;29;20640;-91
2021/03/24 12:12:07;;;;;;;31.20;21.67;;;17.60;99.90;;;;;;4945463;28;20222;-91
2021/03/24 12:14:33;;;;;;;36.83;26.88;;;17.70;99.90;;;;;;4958239;28;20219;-91
2021/03/24 12:17:01;;;;;;;31.85;23.90;;;18.00;99.90;;;;;;4958071;28;20191;-91
2021/03/24 12:19:33;;;;;;;33.95;25.17;;;18.20;99.90;;;;;;4960703;28;20196;-90
2021/03/24 12:22:03;;;;;;;34.67;23.67;;;18.40;99.90;;;;;;4976622;28;20196;-90
2021/03/24 12:24:32;;;;;;;29.65;21.17;;;18.70;99.90;;;;;;4978608;28;20175;-90
2021/03/24 12:27:17;;;;;;;32.83;23.63;;;18.90;99.90;;;;;;4966959;28;20606;-90
2021/03/24 12:29:56;;;;;;;33.00;24.63;;;19.10;99.90;;;;;;4961034;28;20198;-90
2021/03/24 12:32:25;;;;;;;30.05;23.08;;;18.80;99.90;;;;;;4953707;28;20212;-90
2021/03/24 12:34:53;;;;;;;32.45;21.42;;;19.10;99.90;;;;;;4944452;28;20246;-90
2021/03/24 12:37:27;;;;;;;32.65;21.83;;;19.70;99.90;;;;;;4958167;28;20333;-90
2021/03/24 12:40:03;;;;;;;28.38;22.95;;;19.30;99.90;;;;;;4965590;28;20536;-91
2021/03/24 12:42:33;;;;;;;31.60;22.13;;;19.70;99.90;;;;;;4964097;28;20187;-90
2021/03/24 12:45:02;;;;;;;40.55;23.95;;;19.60;99.90;;;;;;4970464;28;20196;-90
2021/03/24 12:47:34;;;;;;;32.72;23.52;;;20.00;99.90;;;;;;4968768;28;20282;-91
2021/03/24 12:50:21;;;;;;;27.73;21.25;;;20.10;99.90;;;;;;4977123;28;20688;-91
2021/03/24 12:53:03;;;;;;;29.80;23.38;;;19.50;99.90;;;;;;4979787;28;20260;-91
2021/03/24 12:55:31;;;;;;;33.28;23.10;;;19.50;99.90;;;;;;4989543;28;20206;-91
2021/03/24 12:58:22;;;;;;;31.13;22.83;;;19.60;99.90;;;;;;4977152;28;20195;-91
2021/03/24 13:00:57;;;;;;;36.80;25.10;;;19.90;99.90;;;;;;4987373;28;20198;-91
2021/03/24 13:03:59;;;;;;;31.45;21.95;;;19.70;99.90;;;;;;4971707;28;20187;-90
2021/03/24 13:06:38;;;;;;;39.35;24.67;;;20.00;99.90;;;;;;4959048;28;20195;-91
2021/03/24 13:09:14;;;;;;;35.45;24.92;;;19.60;99.90;;;;;;4957365;28;20651;-90
2021/03/24 13:11:48;;;;;;;35.05;24.92;;;19.70;99.90;;;;;;4956441;28;20359;-90
2021/03/24 13:14:39;;;;;;;33.45;24.13;;;20.30;99.90;;;;;;4959810;28;20277;-89
2021/03/24 13:17:18;;;;;;;33.47;24.27;;;20.40;99.90;;;;;;4956303;28;20197;-89
2021/03/24 13:19:54;;;;;;;33.25;22.75;;;20.50;99.90;;;;;;4961254;28;20654;-90